createdAt,value
2018-10-16T00:00:14.205Z,18.28
2018-10-16T00:02:43.124Z,18.26
2018-10-16T00:05:12.045Z,18.23
2018-10-16T00:07:41.224Z,18.21
2018-10-16T00:10:10.407Z,18.18
2018-10-16T00:12:39.812Z,18.16
2018-10-16T00:15:09.846Z,18.14
2018-10-16T00:17:38.329Z,18.10
2018-10-16T00:20:08.153Z,18.08
2018-10-16T00:22:37.360Z,18.05
2018-10-16T00:25:09.913Z,18.02
2018-10-16T00:27:38.616Z,18.01
2018-10-16T00:30:08.029Z,17.98
2018-10-16T00:32:39.816Z,17.93
2018-10-16T00:35:08.356Z,17.92
2018-10-16T00:37:37.170Z,17.89
2018-10-16T00:40:06.194Z,17.87
2018-10-16T00:42:34.843Z,17.85
2018-10-16T00:45:03.610Z,17.83
2018-10-16T00:47:32.798Z,17.81
2018-10-16T00:50:01.704Z,17.79
2018-10-16T00:52:30.872Z,17.75
2018-10-16T00:54:59.343Z,17.72
2018-10-16T00:57:28.042Z,17.70
2018-10-16T00:59:56.993Z,17.68
2018-10-16T01:02:25.576Z,17.67
2018-10-16T01:04:54.076Z,17.64
2018-10-16T01:07:22.546Z,17.64
2018-10-16T01:09:51.233Z,17.61
2018-10-16T01:12:19.721Z,17.58
2018-10-16T01:14:48.977Z,17.58
2018-10-16T01:17:17.522Z,17.56
2018-10-16T01:19:46.124Z,17.54
2018-10-16T01:22:14.955Z,17.52
2018-10-16T01:24:43.498Z,17.50
2018-10-16T01:27:12.048Z,17.48
2018-10-16T01:29:40.680Z,17.47
2018-10-16T01:32:09.162Z,17.42
2018-10-16T01:34:37.802Z,17.40
2018-10-16T01:37:06.365Z,17.38
2018-10-16T01:39:34.961Z,17.36
2018-10-16T01:42:04.287Z,17.35
2018-10-16T01:44:32.897Z,17.34
2018-10-16T01:47:01.706Z,17.31
2018-10-16T01:49:30.869Z,17.29
2018-10-16T01:51:59.391Z,17.27
2018-10-16T01:54:28.467Z,17.26
2018-10-16T01:56:57.630Z,17.25
2018-10-16T01:59:26.561Z,17.23
2018-10-16T02:01:55.078Z,17.23
2018-10-16T02:04:24.617Z,17.20
2018-10-16T02:06:53.331Z,17.18
2018-10-16T02:09:22.901Z,17.16
2018-10-16T02:11:51.397Z,17.13
2018-10-16T02:14:19.925Z,17.11
2018-10-16T02:16:48.962Z,17.08
2018-10-16T02:19:17.570Z,17.05
2018-10-16T02:21:46.060Z,17.03
2018-10-16T02:24:14.516Z,17.02
2018-10-16T02:26:43.393Z,16.97
2018-10-16T02:29:12.169Z,16.94
2018-10-16T02:31:41.381Z,16.95
2018-10-16T02:34:10.341Z,16.96
2018-10-16T02:36:39.770Z,16.97
2018-10-16T02:39:09.791Z,16.96
2018-10-16T02:41:38.524Z,16.93
2018-10-16T02:44:07.918Z,16.92
2018-10-16T02:46:36.504Z,16.89
2018-10-16T02:49:05.754Z,16.86
2018-10-16T02:51:34.203Z,16.85
2018-10-16T02:54:02.712Z,16.82
2018-10-16T02:56:31.396Z,16.81
2018-10-16T02:59:00.180Z,16.79
2018-10-16T03:01:28.661Z,16.78
2018-10-16T03:03:57.405Z,16.75
2018-10-16T03:06:25.962Z,16.73
2018-10-16T03:08:54.417Z,16.73
2018-10-16T03:11:23.470Z,16.71
2018-10-16T03:13:52.029Z,16.69
2018-10-16T03:16:20.583Z,16.68
2018-10-16T03:18:49.059Z,16.65
2018-10-16T03:21:17.645Z,16.63
2018-10-16T03:23:46.249Z,16.62
2018-10-16T03:26:14.739Z,16.60
2018-10-16T03:28:43.587Z,16.58
2018-10-16T03:31:12.153Z,16.55
2018-10-16T03:33:40.788Z,16.52
2018-10-16T03:36:09.301Z,16.50
2018-10-16T03:38:37.748Z,16.50
2018-10-16T03:41:06.286Z,16.47
2018-10-16T03:43:37.901Z,16.45
2018-10-16T03:46:07.607Z,16.43
2018-10-16T03:48:36.368Z,16.43
2018-10-16T03:51:05.634Z,16.41
2018-10-16T03:53:34.286Z,16.39
2018-10-16T03:56:02.974Z,16.39
2018-10-16T03:58:31.598Z,16.35
2018-10-16T04:01:00.045Z,16.34
2018-10-16T04:03:29.241Z,16.34
2018-10-16T04:05:58.458Z,16.33
2018-10-16T04:08:27.084Z,16.33
2018-10-16T04:10:55.554Z,16.32
2018-10-16T04:13:24.202Z,16.32
2018-10-16T04:15:52.652Z,16.30
2018-10-16T04:18:21.276Z,16.30
2018-10-16T04:20:50.057Z,16.28
2018-10-16T04:23:18.491Z,16.28
2018-10-16T04:25:47.793Z,16.27
2018-10-16T04:28:16.271Z,16.25
2018-10-16T04:30:44.833Z,16.23
2018-10-16T04:33:13.480Z,16.22
2018-10-16T04:35:41.900Z,16.20
2018-10-16T04:38:11.007Z,16.17
2018-10-16T04:40:39.967Z,16.15
2018-10-16T04:43:08.468Z,16.13
2018-10-16T04:45:37.208Z,16.10
2018-10-16T04:48:06.893Z,16.03
2018-10-16T04:50:35.409Z,15.98
2018-10-16T04:53:04.720Z,16.00
2018-10-16T04:55:33.185Z,15.97
2018-10-16T04:58:02.049Z,15.98
2018-10-16T05:00:30.727Z,16.00
2018-10-16T05:03:00.499Z,15.99
2018-10-16T05:05:29.068Z,15.96
2018-10-16T05:07:57.686Z,15.94
2018-10-16T05:10:33.037Z,15.90
2018-10-16T05:13:02.476Z,15.89
2018-10-16T05:15:32.081Z,15.86
2018-10-16T05:18:00.525Z,15.81
2018-10-16T05:20:29.092Z,15.78
2018-10-16T05:22:59.557Z,15.77
2018-10-16T05:25:29.317Z,15.76
2018-10-16T05:27:58.339Z,15.72
2018-10-16T05:30:27.395Z,15.72
2018-10-16T05:32:56.967Z,15.72
2018-10-16T05:35:25.415Z,15.67
2018-10-16T05:37:53.925Z,15.66
2018-10-16T05:40:22.382Z,15.62
2018-10-16T05:42:51.588Z,15.62
2018-10-16T05:45:20.111Z,15.62
2018-10-16T05:47:48.727Z,15.64
2018-10-16T05:50:17.531Z,15.64
2018-10-16T05:52:47.116Z,15.63
2018-10-16T05:55:16.614Z,15.63
2018-10-16T05:57:45.242Z,15.63
2018-10-16T06:00:24.942Z,15.63
2018-10-16T06:02:54.284Z,15.63
2018-10-16T06:05:22.834Z,15.63
2018-10-16T06:07:51.430Z,15.65
2018-10-16T06:10:19.957Z,15.66
2018-10-16T06:12:48.593Z,15.65
2018-10-16T06:15:17.102Z,15.65
2018-10-16T06:17:46.122Z,15.65
2018-10-16T06:20:14.779Z,15.64
2018-10-16T06:22:43.654Z,15.65
2018-10-16T06:25:12.453Z,15.65
2018-10-16T06:27:42.447Z,15.65
2018-10-16T06:30:12.269Z,15.65
2018-10-16T06:32:41.188Z,15.65
2018-10-16T06:35:10.812Z,15.64
2018-10-16T06:37:40.212Z,15.64
2018-10-16T06:40:10.185Z,15.64
2018-10-16T06:42:39.512Z,15.63
2018-10-16T06:45:09.285Z,15.60
2018-10-16T06:47:38.449Z,15.58
2018-10-16T06:50:08.875Z,15.56
2018-10-16T06:52:37.393Z,15.57
2018-10-16T06:55:07.091Z,15.58
2018-10-16T06:57:36.137Z,15.58
2018-10-16T07:00:05.588Z,15.61
2018-10-16T07:02:34.852Z,15.62
2018-10-16T07:05:03.381Z,15.65
2018-10-16T07:07:32.823Z,15.68
2018-10-16T07:10:01.405Z,15.72
2018-10-16T07:12:29.886Z,15.76
2018-10-16T07:14:58.626Z,15.78
2018-10-16T07:17:27.162Z,15.82
2018-10-16T07:19:55.708Z,15.87
2018-10-16T07:22:24.561Z,15.92
2018-10-16T07:24:53.083Z,15.96
2018-10-16T07:27:21.764Z,16.02
2018-10-16T07:29:50.618Z,16.09
2018-10-16T07:32:19.686Z,16.16
2018-10-16T07:34:48.814Z,16.21
2018-10-16T07:37:17.447Z,16.25
2018-10-16T07:39:46.078Z,16.30
2018-10-16T07:42:14.556Z,16.35
2018-10-16T07:44:43.152Z,16.41
2018-10-16T07:47:11.738Z,16.46
2018-10-16T07:49:40.905Z,16.51
2018-10-16T07:52:09.777Z,16.54
2018-10-16T07:54:38.445Z,16.58
2018-10-16T07:57:07.595Z,16.62
2018-10-16T07:59:37.724Z,16.66
2018-10-16T08:02:06.453Z,16.64
2018-10-16T08:04:35.601Z,16.65
2018-10-16T08:07:04.133Z,16.68
2018-10-16T08:09:32.869Z,16.73
2018-10-16T08:12:01.323Z,16.79
2018-10-16T08:14:29.912Z,16.82
2018-10-16T08:16:59.200Z,16.86
2018-10-16T08:19:27.698Z,16.92
2018-10-16T08:21:56.265Z,16.97
2018-10-16T08:24:24.827Z,17.03
2018-10-16T08:26:53.839Z,17.09
2018-10-16T08:29:22.404Z,17.14
2018-10-16T08:31:50.948Z,17.21
2018-10-16T08:34:19.670Z,17.26
2018-10-16T08:36:48.888Z,17.36
2018-10-16T08:39:22.055Z,17.43
2018-10-16T08:44:04.454Z,17.50
2018-10-16T08:46:44.442Z,17.61
2018-10-16T08:49:24.373Z,17.68
2018-10-16T08:51:54.398Z,17.79
2018-10-16T08:54:23.838Z,17.89
2018-10-16T08:57:00.534Z,17.98
2018-10-16T08:59:29.825Z,18.08
2018-10-16T09:02:05.191Z,18.20
2018-10-16T09:04:33.712Z,18.35
2018-10-16T09:07:02.427Z,18.49
2018-10-16T09:09:30.998Z,18.65
2018-10-16T09:12:00.311Z,18.84
2018-10-16T09:14:28.984Z,19.01
2018-10-16T09:16:57.583Z,19.16
2018-10-16T09:19:26.866Z,19.35
2018-10-16T09:21:55.647Z,19.54
2018-10-16T09:24:24.374Z,19.72
2018-10-16T09:26:52.823Z,19.94
2018-10-16T09:29:22.238Z,20.13
2018-10-16T09:31:50.897Z,20.32
2018-10-16T09:34:19.476Z,20.51
2018-10-16T09:36:48.825Z,20.65
2018-10-16T09:39:17.361Z,20.74
2018-10-16T09:41:45.831Z,20.82
2018-10-16T09:44:14.325Z,20.95
2018-10-16T09:46:43.801Z,21.07
2018-10-16T09:49:12.366Z,21.09
2018-10-16T09:51:40.851Z,21.12
2018-10-16T09:54:09.308Z,21.13
2018-10-16T09:56:38.145Z,21.17
2018-10-16T09:59:07.086Z,21.22
2018-10-16T10:01:40.794Z,21.24
2018-10-16T10:04:09.251Z,21.28
2018-10-16T10:06:37.888Z,21.31
2018-10-16T10:09:09.423Z,21.34
2018-10-16T10:11:38.160Z,21.37
2018-10-16T10:14:07.281Z,21.41
2018-10-16T10:16:36.527Z,21.46
2018-10-16T10:19:05.683Z,21.51
2018-10-16T10:21:34.173Z,21.57
2018-10-16T10:24:02.905Z,21.67
2018-10-16T10:26:32.349Z,21.75
2018-10-16T10:29:00.961Z,21.91
2018-10-16T10:31:30.025Z,22.10
2018-10-16T10:33:58.962Z,22.23
2018-10-16T10:36:27.771Z,22.43
2018-10-16T10:38:56.396Z,22.59
2018-10-16T10:41:24.973Z,22.78
2018-10-16T10:43:54.178Z,22.88
2018-10-16T10:46:22.771Z,22.92
2018-10-16T10:48:52.434Z,22.90
2018-10-16T10:51:21.242Z,22.89
2018-10-16T10:53:50.177Z,22.89
2018-10-16T10:56:18.660Z,22.89
2018-10-16T10:58:47.131Z,22.92
2018-10-16T11:01:15.853Z,23.00
2018-10-16T11:03:44.355Z,23.26
2018-10-16T11:06:13.053Z,23.45
2018-10-16T11:08:41.743Z,23.65
2018-10-16T11:11:10.173Z,23.94
2018-10-16T11:13:38.790Z,24.12
2018-10-16T11:16:07.347Z,24.26
2018-10-16T11:18:35.969Z,24.57
2018-10-16T11:21:04.696Z,24.92
2018-10-16T11:23:33.291Z,25.22
2018-10-16T11:26:01.733Z,25.63
2018-10-16T11:28:30.765Z,26.05
2018-10-16T11:30:59.200Z,26.37
2018-10-16T11:33:27.749Z,26.43
2018-10-16T11:35:56.251Z,26.58
2018-10-16T11:38:24.993Z,26.82
2018-10-16T11:40:53.806Z,27.14
2018-10-16T11:43:22.860Z,27.50
2018-10-16T11:45:51.530Z,27.78
2018-10-16T11:48:19.898Z,28.07
2018-10-16T11:50:48.452Z,28.27
2018-10-16T11:53:17.139Z,28.03
2018-10-16T11:55:45.581Z,27.93
2018-10-16T11:58:14.821Z,27.75
2018-10-16T12:00:43.461Z,27.53
2018-10-16T12:03:12.009Z,27.59
2018-10-16T12:05:40.870Z,27.68
2018-10-16T12:08:09.558Z,27.62
2018-10-16T12:10:37.973Z,27.43
2018-10-16T12:13:06.567Z,27.27
2018-10-16T12:15:35.078Z,27.12
2018-10-16T12:18:08.791Z,27.18
2018-10-16T12:20:44.692Z,27.14
2018-10-16T12:23:13.209Z,27.12
2018-10-16T12:25:41.917Z,27.16
2018-10-16T12:28:10.337Z,27.14
2018-10-16T12:30:38.932Z,27.05
2018-10-16T12:33:07.634Z,26.98
2018-10-16T12:35:36.413Z,26.83
2018-10-16T12:38:05.129Z,26.72
2018-10-16T12:40:33.929Z,26.64
2018-10-16T12:43:03.502Z,26.49
2018-10-16T12:45:32.930Z,26.39
2018-10-16T12:48:01.541Z,26.31
2018-10-16T12:50:30.032Z,26.21
2018-10-16T12:52:59.262Z,26.15
2018-10-16T12:55:27.737Z,26.08
2018-10-16T12:57:56.265Z,26.09
2018-10-16T13:00:24.934Z,26.33
2018-10-16T13:02:54.027Z,26.60
2018-10-16T13:05:22.486Z,26.89
2018-10-16T13:07:50.980Z,27.00
2018-10-16T13:10:19.871Z,27.06
2018-10-16T13:12:48.384Z,27.14
2018-10-16T13:15:17.674Z,27.09
2018-10-16T13:17:46.233Z,27.32
2018-10-16T13:20:15.869Z,27.60
2018-10-16T13:22:46.284Z,27.60
2018-10-16T13:25:15.917Z,27.55
2018-10-16T13:27:44.947Z,27.72
2018-10-16T13:30:15.731Z,27.99
2018-10-16T13:32:44.831Z,28.26
2018-10-16T13:35:15.128Z,28.50
2018-10-16T13:37:44.162Z,28.68
2018-10-16T13:40:12.985Z,28.82
2018-10-16T13:42:41.701Z,28.97
2018-10-16T13:45:13.567Z,29.01
2018-10-16T13:47:42.127Z,29.23
2018-10-16T13:50:12.555Z,29.56
2018-10-16T13:52:41.177Z,30.10
2018-10-16T13:55:10.477Z,31.08
2018-10-16T13:57:39.029Z,32.05
2018-10-16T14:00:12.906Z,31.90
2018-10-16T14:02:42.486Z,31.68
2018-10-16T14:05:11.219Z,30.91
2018-10-16T14:07:40.327Z,30.24
2018-10-16T14:10:10.815Z,29.71
2018-10-16T14:12:40.785Z,29.33
2018-10-16T14:15:09.877Z,29.03
2018-10-16T14:17:38.645Z,28.80
2018-10-16T14:20:08.200Z,28.53
2018-10-16T14:22:38.264Z,28.32
2018-10-16T14:25:07.917Z,28.17
2018-10-16T14:27:37.080Z,28.07
2018-10-16T14:30:06.939Z,27.88
2018-10-16T14:32:35.704Z,27.73
2018-10-16T14:35:04.409Z,27.58
2018-10-16T14:37:32.856Z,27.47
2018-10-16T14:40:01.590Z,27.36
2018-10-16T14:42:30.018Z,27.29
2018-10-16T14:44:59.136Z,27.15
2018-10-16T14:47:28.126Z,27.09
2018-10-16T14:49:56.780Z,27.02
2018-10-16T14:52:25.361Z,26.99
2018-10-16T14:54:53.943Z,26.97
2018-10-16T14:57:22.421Z,26.93
2018-10-16T14:59:50.913Z,26.86
2018-10-16T15:02:19.600Z,26.76
2018-10-16T15:04:48.286Z,26.67
2018-10-16T15:07:16.812Z,26.62
2018-10-16T15:09:45.332Z,26.57
2018-10-16T15:12:13.746Z,26.53
2018-10-16T15:14:42.341Z,26.47
2018-10-16T15:17:11.136Z,26.38
2018-10-16T15:19:39.850Z,26.34
2018-10-16T15:22:08.651Z,26.27
2018-10-16T15:24:37.189Z,26.19
2018-10-16T15:27:06.329Z,26.10
2018-10-16T15:29:34.939Z,26.03
2018-10-16T15:32:04.052Z,25.94
2018-10-16T15:34:32.580Z,25.84
2018-10-16T15:37:00.984Z,25.73
2018-10-16T15:39:29.596Z,25.64
2018-10-16T15:41:58.097Z,25.57
2018-10-16T15:44:26.841Z,25.49
2018-10-16T15:46:55.419Z,25.41
2018-10-16T15:49:24.430Z,25.34
2018-10-16T15:51:53.321Z,25.25
2018-10-16T15:54:22.043Z,25.18
2018-10-16T15:56:51.055Z,25.10
2018-10-16T15:59:19.586Z,24.99
2018-10-16T16:01:48.135Z,24.91
2018-10-16T16:04:16.808Z,24.82
2018-10-16T16:06:45.359Z,24.73
2018-10-16T16:09:13.940Z,24.65
2018-10-16T16:11:43.495Z,24.55
2018-10-16T16:14:12.742Z,24.47
2018-10-16T16:16:41.312Z,24.39
2018-10-16T16:19:09.871Z,24.30
2018-10-16T16:21:38.500Z,24.20
2018-10-16T16:24:07.053Z,24.10
2018-10-16T16:26:35.643Z,24.02
2018-10-16T16:29:04.704Z,23.93
2018-10-16T16:31:34.221Z,23.87
2018-10-16T16:34:02.798Z,23.79
2018-10-16T16:36:31.398Z,23.71
2018-10-16T16:38:59.938Z,23.65
2018-10-16T16:41:29.441Z,23.56
2018-10-16T16:43:58.312Z,23.49
2018-10-16T16:46:26.801Z,23.42
2018-10-16T16:48:55.288Z,23.33
2018-10-16T16:51:24.127Z,23.27
2018-10-16T16:53:52.588Z,23.21
2018-10-16T16:56:21.858Z,23.12
2018-10-16T16:58:50.892Z,23.05
2018-10-16T17:01:19.378Z,22.99
2018-10-16T17:03:47.816Z,22.92
2018-10-16T17:06:16.645Z,22.86
2018-10-16T17:08:45.502Z,22.79
2018-10-16T17:11:14.127Z,22.72
2018-10-16T17:13:43.697Z,22.66
2018-10-16T17:16:12.280Z,22.59
2018-10-16T17:18:40.817Z,22.54
2018-10-16T17:21:09.281Z,22.47
2018-10-16T17:23:38.050Z,22.41
2018-10-16T17:26:07.259Z,22.35
2018-10-16T17:28:35.742Z,22.30
2018-10-16T17:31:04.245Z,22.23
2018-10-16T17:33:33.010Z,22.18
2018-10-16T17:36:01.759Z,22.14
2018-10-16T17:38:30.818Z,22.08
2018-10-16T17:40:59.521Z,22.02
2018-10-16T17:43:34.566Z,21.97
2018-10-16T17:46:03.391Z,21.92
2018-10-16T17:48:32.693Z,21.86
2018-10-16T17:51:01.296Z,21.81
2018-10-16T17:53:30.532Z,21.76
2018-10-16T17:55:59.853Z,21.72
2018-10-16T17:58:28.588Z,21.68
2018-10-16T18:00:57.246Z,21.65
2018-10-16T18:03:25.729Z,21.60
2018-10-16T18:05:54.193Z,21.56
2018-10-16T18:08:23.888Z,21.51
2018-10-16T18:10:52.425Z,21.45
2018-10-16T18:13:21.036Z,21.42
2018-10-16T18:15:49.725Z,21.38
2018-10-16T18:18:18.780Z,21.35
2018-10-16T18:20:47.462Z,21.32
2018-10-16T18:23:16.018Z,21.28
2018-10-16T18:25:44.557Z,21.23
2018-10-16T18:28:13.331Z,21.20
2018-10-16T18:30:41.806Z,21.15
2018-10-16T18:33:10.523Z,21.11
2018-10-16T18:35:39.163Z,21.09
2018-10-16T18:38:07.751Z,21.05
2018-10-16T18:40:36.340Z,21.02
2018-10-16T18:43:04.945Z,20.99
2018-10-16T18:45:33.644Z,20.96
2018-10-16T18:48:02.396Z,20.93
2018-10-16T18:50:31.272Z,20.90
2018-10-16T18:52:59.711Z,20.85
2018-10-16T18:55:28.589Z,20.82
2018-10-16T18:57:57.175Z,20.78
2018-10-16T19:00:25.681Z,20.75
2018-10-16T19:02:54.376Z,20.72
2018-10-16T19:05:23.156Z,20.69
2018-10-16T19:07:52.169Z,20.66
2018-10-16T19:10:20.851Z,20.62
2018-10-16T19:12:49.434Z,20.60
2018-10-16T19:15:18.508Z,20.56
2018-10-16T19:17:47.417Z,20.53
2018-10-16T19:20:16.923Z,20.50
2018-10-16T19:22:46.278Z,20.47
2018-10-16T19:25:18.621Z,20.45
2018-10-16T19:27:48.063Z,20.43
2018-10-16T19:30:16.588Z,20.39
2018-10-16T19:32:45.301Z,20.37
2018-10-16T19:35:15.176Z,20.36
2018-10-16T19:37:43.853Z,20.33
2018-10-16T19:40:12.860Z,20.30
2018-10-16T19:42:41.457Z,20.28
2018-10-16T19:45:10.924Z,20.25
2018-10-16T19:47:40.091Z,20.22
2018-10-16T19:50:09.376Z,20.20
2018-10-16T19:52:38.115Z,20.16
2018-10-16T19:55:06.917Z,20.14
2018-10-16T19:57:35.558Z,20.12
2018-10-16T20:00:04.510Z,20.10
2018-10-16T20:02:33.007Z,20.05
2018-10-16T20:05:01.864Z,20.02
2018-10-16T20:07:30.758Z,19.98
2018-10-16T20:09:59.274Z,19.96
2018-10-16T20:12:27.904Z,19.94
2018-10-16T20:14:56.476Z,19.91
2018-10-16T20:17:25.487Z,19.89
2018-10-16T20:19:54.040Z,19.89
2018-10-16T20:22:22.810Z,19.85
2018-10-16T20:24:51.565Z,19.85
2018-10-16T20:27:20.235Z,19.84
2018-10-16T20:29:48.892Z,19.82
2018-10-16T20:32:17.770Z,19.79
2018-10-16T20:34:46.563Z,19.75
2018-10-16T20:37:15.830Z,19.72
2018-10-16T20:39:45.211Z,19.72
2018-10-16T20:42:13.772Z,19.68
2018-10-16T20:44:42.302Z,19.67
2018-10-16T20:47:10.990Z,19.64
2018-10-16T20:49:40.689Z,19.61
2018-10-16T20:52:09.275Z,19.59
2018-10-16T20:54:44.696Z,19.56
2018-10-16T20:57:13.795Z,19.52
2018-10-16T20:59:43.789Z,19.51
2018-10-16T21:02:12.585Z,19.48
2018-10-16T21:04:41.906Z,19.45
2018-10-16T21:07:11.485Z,19.42
2018-10-16T21:09:41.065Z,19.41
2018-10-16T21:12:10.285Z,19.39
2018-10-16T21:14:38.868Z,19.38
2018-10-16T21:17:07.467Z,19.37
2018-10-16T21:19:35.952Z,19.36
2018-10-16T21:22:04.762Z,19.34
2018-10-16T21:24:40.190Z,19.32
2018-10-16T21:27:10.305Z,19.29
2018-10-16T21:29:38.936Z,19.28
2018-10-16T21:32:09.141Z,19.26
2018-10-16T21:34:38.017Z,19.23
2018-10-16T21:37:07.124Z,19.20
2018-10-16T21:39:36.207Z,19.19
2018-10-16T21:42:05.092Z,19.16
2018-10-16T21:44:33.788Z,19.15
2018-10-16T21:47:02.300Z,19.12
2018-10-16T21:49:30.973Z,19.09
2018-10-16T21:51:59.495Z,19.08
2018-10-16T21:54:28.109Z,19.01
2018-10-16T21:56:56.681Z,18.97
2018-10-16T21:59:26.195Z,18.95
2018-10-16T22:02:00.632Z,18.95
2018-10-16T22:04:29.093Z,18.93
2018-10-16T22:06:57.762Z,18.90
2018-10-16T22:09:26.325Z,18.90
2018-10-16T22:11:55.013Z,18.89
2018-10-16T22:14:23.506Z,18.88
2018-10-16T22:16:52.137Z,18.86
2018-10-16T22:19:20.617Z,18.85
2018-10-16T22:21:49.184Z,18.82
2018-10-16T22:24:18.413Z,18.82
2018-10-16T22:26:47.834Z,18.81
2018-10-16T22:29:16.984Z,18.78
2018-10-16T22:31:45.552Z,18.77
2018-10-16T22:34:14.057Z,18.74
2018-10-16T22:36:42.629Z,18.71
2018-10-16T22:39:11.795Z,18.69
2018-10-16T22:41:40.476Z,18.66
2018-10-16T22:44:09.584Z,18.63
2018-10-16T22:46:38.305Z,18.61
2018-10-16T22:49:07.359Z,18.60
2018-10-16T22:51:35.987Z,18.58
2018-10-16T22:54:04.565Z,18.56
2018-10-16T22:56:33.032Z,18.55
2018-10-16T22:59:01.873Z,18.56
2018-10-16T23:01:30.503Z,18.55
2018-10-16T23:03:59.848Z,18.54
2018-10-16T23:06:28.313Z,18.52
2018-10-16T23:08:56.780Z,18.49
2018-10-16T23:11:25.405Z,18.49
2018-10-16T23:13:53.997Z,18.47
2018-10-16T23:16:22.761Z,18.48
2018-10-16T23:18:51.269Z,18.46
2018-10-16T23:21:19.737Z,18.43
2018-10-16T23:23:48.217Z,18.43
2018-10-16T23:26:16.984Z,18.43
2018-10-16T23:28:45.455Z,18.43
2018-10-16T23:31:14.079Z,18.44
2018-10-16T23:33:42.641Z,18.43
2018-10-16T23:36:11.199Z,18.43
2018-10-16T23:38:40.351Z,18.42
2018-10-16T23:41:09.304Z,18.40
2018-10-16T23:43:37.922Z,18.39
2018-10-16T23:46:06.929Z,18.36
2018-10-16T23:48:36.009Z,18.34
2018-10-16T23:51:04.528Z,18.32
2018-10-16T23:53:33.161Z,18.27
2018-10-16T23:56:01.680Z,18.28
2018-10-16T23:58:30.421Z,18.23
